Time;durP1;ratioP1;P1;durP2;ratioP2;P2;SDS_P1;SDS_P2;PMS_P1;PMS_P2;Temp;Humidity;BMP_temperature;BMP_pressure;BME280_temperature;BME280_humidity;BME280_pressure;Samples;Min_cycle;Max_cycle;Signal;HPM_P1;HPM_P2
2022/01/09 00:01:44;;;;;;;37.00;23.73;;;;;;;-1.07;86.92;99792.24;1432936;89;22390;-81
2022/01/09 00:04:11;;;;;;;35.20;21.95;;;;;;;-1.10;86.62;99799.74;1407572;90;21494;-81
2022/01/09 00:06:38;;;;;;;34.65;21.00;;;;;;;-1.12;86.65;99793.83;1409623;90;21442;-80
2022/01/09 00:09:06;;;;;;;33.48;20.27;;;;;;;-1.10;86.62;99789.36;1424833;91;21429;-82
2022/01/09 00:11:33;;;;;;;36.90;23.18;;;;;;;-1.13;86.53;99779.16;1415577;91;21746;-82
2022/01/09 00:14:00;;;;;;;38.08;23.10;;;;;;;-1.12;86.56;99773.48;1404541;90;21561;-82
2022/01/09 00:16:27;;;;;;;39.40;24.25;;;;;;;-1.19;86.12;99780.81;1423828;89;21416;-82
2022/01/09 00:18:54;;;;;;;38.23;22.77;;;;;;;-1.28;85.79;99779.58;1425937;89;21670;-82
2022/01/09 00:21:22;;;;;;;42.98;25.70;;;;;;;-1.31;85.97;99784.12;1426108;90;21486;-81
2022/01/09 00:23:49;;;;;;;34.33;21.12;;;;;;;-1.36;86.04;99773.52;1415157;89;22528;-83
2022/01/09 00:26:16;;;;;;;37.63;22.77;;;;;;;-1.39;86.08;99776.29;1416487;89;21530;-83
2022/01/09 00:28:43;;;;;;;35.60;23.00;;;;;;;-1.40;86.27;99770.73;1428786;88;22690;-82
2022/01/09 00:31:10;;;;;;;35.75;21.93;;;;;;;-1.41;86.36;99774.27;1449032;88;21727;-82
2022/01/09 00:33:37;;;;;;;40.12;24.55;;;;;;;-1.42;86.30;99769.98;1443450;88;22389;-83
2022/01/09 00:36:05;;;;;;;37.83;24.23;;;;;;;-1.45;86.31;99766.27;1409498;91;21485;-81
2022/01/09 00:38:31;;;;;;;42.08;24.98;;;;;;;-1.54;86.06;99769.86;1424211;89;21427;-82
2022/01/09 00:40:59;;;;;;;53.25;28.23;;;;;;;-1.63;86.09;99762.13;1440750;88;21379;-82
2022/01/09 00:43:26;;;;;;;43.52;25.80;;;;;;;-1.66;86.32;99749.33;1446110;88;21515;-82
2022/01/09 00:45:54;;;;;;;50.10;27.07;;;;;;;-1.70;86.31;99751.70;1448296;88;21456;-83
2022/01/09 00:48:21;;;;;;;45.73;25.62;;;;;;;-1.74;86.46;99749.75;1420881;89;22558;-83
2022/01/09 00:50:48;;;;;;;38.98;24.95;;;;;;;-1.84;86.57;99744.25;1422278;90;21428;-83
2022/01/09 00:53:15;;;;;;;43.78;24.80;;;;;;;-1.89;86.71;99746.26;1389554;91;21680;-84
2022/01/09 00:55:43;;;;;;;45.33;25.82;;;;;;;-1.93;86.92;99741.31;1433923;89;21479;-84
2022/01/09 00:58:10;;;;;;;49.13;27.50;;;;;;;-1.97;86.95;99750.20;1421119;87;21599;-85
2022/01/09 01:00:39;;;;;;;46.33;28.45;;;;;;;-2.04;87.06;99738.04;1441011;88;22667;-84
2022/01/09 01:03:06;;;;;;;55.65;30.95;;;;;;;-2.05;87.14;99736.34;1465038;85;23806;-83
2022/01/09 01:05:34;;;;;;;50.20;28.77;;;;;;;-2.07;87.27;99734.32;1484592;86;21464;-83
2022/01/09 01:08:01;;;;;;;50.60;29.30;;;;;;;-2.09;87.54;99730.97;1489195;85;21561;-82
2022/01/09 01:10:29;;;;;;;53.10;28.83;;;;;;;-2.12;87.62;99728.55;1434009;88;21472;-82
2022/01/09 01:12:56;;;;;;;52.10;29.00;;;;;;;-2.17;87.76;99728.78;1474344;85;21962;-81
2022/01/09 01:15:23;;;;;;;48.68;27.65;;;;;;;-2.19;87.72;99723.30;1441189;87;21414;-82
2022/01/09 01:17:50;;;;;;;54.53;30.97;;;;;;;-2.21;87.79;99720.81;1457432;87;22531;-83
2022/01/09 01:20:21;;;;;;;55.95;31.62;;;;;;;-2.21;87.89;99725.16;1432021;88;21466;-82
2022/01/09 01:22:49;;;;;;;52.08;31.10;;;;;;;-2.24;88.46;99716.23;1447827;87;21428;-82
2022/01/09 01:25:18;;;;;;;54.85;29.57;;;;;;;-2.24;88.21;99711.05;1413140;90;21518;-81
2022/01/09 01:27:46;;;;;;;52.80;30.80;;;;;;;-2.19;88.17;99710.34;1396371;92;22024;-83
2022/01/09 01:30:14;;;;;;;47.78;29.25;;;;;;;-2.19;88.22;99699.97;1442059;85;21516;-82
2022/01/09 01:32:42;;;;;;;52.95;31.02;;;;;;;-2.19;88.15;99698.67;1451020;87;22432;-82
2022/01/09 01:35:12;;;;;;;59.85;32.15;;;;;;;-2.20;88.22;99695.72;1452103;88;21444;-83
2022/01/09 01:37:42;;;;;;;66.05;35.35;;;;;;;-2.22;88.02;99693.66;1451950;88;21686;-83
2022/01/09 01:40:14;;;;;;;65.78;35.92;;;;;;;-2.26;88.51;99698.19;1457887;86;22448;-83
2022/01/09 01:42:42;;;;;;;64.27;34.63;;;;;;;-2.27;88.73;99696.06;1443783;87;21549;-83
2022/01/09 01:45:11;;;;;;;66.12;34.70;;;;;;;-2.20;88.52;99694.42;1452978;87;21546;-84
2022/01/09 01:47:38;;;;;;;55.33;32.13;;;;;;;-2.22;88.72;99684.12;1456520;87;21487;-83
2022/01/09 01:50:09;;;;;;;51.73;30.70;;;;;;;-2.19;88.54;99677.47;1453112;87;22264;-83
2022/01/09 01:52:41;;;;;;;49.08;28.35;;;;;;;-2.19;88.41;99680.53;1460499;88;21546;-83
2022/01/09 01:55:08;;;;;;;52.55;29.20;;;;;;;-2.22;88.23;99675.05;1458273;88;21456;-80
2022/01/09 01:57:39;;;;;;;50.33;30.65;;;;;;;-2.22;88.30;99678.11;1430737;88;21421;-80
2022/01/09 02:00:11;;;;;;;40.78;24.12;;;;;;;-2.23;88.29;99672.09;1450720;88;21473;-80
2022/01/09 02:02:40;;;;;;;52.80;31.45;;;;;;;-2.27;88.36;99671.43;1474470;86;22915;-80
2022/01/09 02:05:08;;;;;;;55.80;31.77;;;;;;;-2.31;88.29;99669.08;1463191;87;21685;-81
2022/01/09 02:07:38;;;;;;;64.25;34.00;;;;;;;-2.34;88.59;99666.20;1450827;87;21615;-81
2022/01/09 02:10:10;;;;;;;59.95;30.72;;;;;;;-2.32;88.50;99666.95;1461394;87;22435;-81
2022/01/09 02:12:55;;;;;;;;;;;;;;;;;;;;;
2022/01/09 02:15:38;;;;;;;63.23;31.35;;;;;;;-2.32;88.43;99651.88;1468397;87;22396;-81
2022/01/09 02:18:09;;;;;;;53.00;31.70;;;;;;;-2.32;88.41;99647.52;1480490;86;21442;-81
2022/01/09 02:20:38;;;;;;;55.80;31.37;;;;;;;-2.32;88.39;99652.70;1464161;87;21576;-81
2022/01/09 02:23:09;;;;;;;49.10;28.23;;;;;;;-2.32;88.35;99654.00;1475956;85;21458;-81
2022/01/09 02:25:38;;;;;;;38.05;25.08;;;;;;;-2.33;88.31;99653.63;1476264;86;22545;-81
2022/01/09 02:28:07;;;;;;;52.60;29.30;;;;;;;-2.35;88.30;99654.17;1476588;87;22308;-82
2022/01/09 02:30:35;;;;;;;54.33;30.72;;;;;;;-2.41;88.16;99649.33;1459864;88;21687;-82
2022/01/09 02:33:07;;;;;;;51.20;29.48;;;;;;;-2.45;88.45;99640.03;1450171;87;22604;-81
2022/01/09 02:35:36;;;;;;;53.92;30.80;;;;;;;-2.46;88.38;99639.67;1426938;89;21445;-82
2022/01/09 02:38:05;;;;;;;52.33;28.57;;;;;;;-2.46;88.71;99640.13;1430494;89;21436;-81
2022/01/09 02:40:34;;;;;;;49.40;26.93;;;;;;;-2.47;88.34;99645.78;1437171;88;21600;-81
2022/01/09 02:43:03;;;;;;;62.30;28.87;;;;;;;-2.51;88.45;99643.79;1427158;88;21674;-81
2022/01/09 02:45:31;;;;;;;47.38;27.27;;;;;;;-2.49;88.36;99637.24;1445279;87;21501;-80
2022/01/09 02:48:01;;;;;;;50.75;27.60;;;;;;;-2.50;88.39;99636.88;1420814;90;23468;-81
2022/01/09 02:50:33;;;;;;;46.98;25.40;;;;;;;-2.52;88.49;99625.29;1456313;86;21569;-81
2022/01/09 02:53:00;;;;;;;45.50;26.15;;;;;;;-2.53;88.61;99626.22;1452703;88;21518;-81
2022/01/09 02:55:29;;;;;;;47.30;27.07;;;;;;;-2.52;88.52;99627.05;1448059;88;21692;-82
2022/01/09 02:58:00;;;;;;;48.80;27.37;;;;;;;-2.51;88.58;99626.13;1439356;87;21437;-82
2022/01/09 03:00:32;;;;;;;50.45;28.57;;;;;;;-2.48;88.47;99624.66;1422815;90;21637;-81
2022/01/09 03:03:00;;;;;;;48.00;25.68;;;;;;;-2.45;88.35;99629.66;1386992;91;21671;-81
2022/01/09 03:05:28;;;;;;;42.58;25.65;;;;;;;-2.43;88.23;99624.41;1393760;91;21449;-81
2022/01/09 03:07:56;;;;;;;52.93;26.85;;;;;;;-2.40;88.15;99622.48;1396772;90;22484;-81
2022/01/09 03:10:25;;;;;;;47.78;24.77;;;;;;;-2.35;88.20;99621.77;1419349;90;21412;-82
2022/01/09 03:12:56;;;;;;;43.63;24.20;;;;;;;-2.35;87.92;99617.88;1399517;91;21405;-82
2022/01/09 03:15:25;;;;;;;49.80;27.35;;;;;;;-2.33;87.86;99618.64;1419367;90;22405;-85
2022/01/09 03:17:55;;;;;;;50.60;27.13;;;;;;;-2.32;87.73;99616.88;1445850;88;22396;-84
2022/01/09 03:20:25;;;;;;;48.78;28.83;;;;;;;-2.32;87.53;99612.53;1427589;89;21555;-84
2022/01/09 03:22:55;;;;;;;49.58;28.85;;;;;;;-2.34;87.27;99610.94;1440916;90;21406;-85
2022/01/09 03:25:25;;;;;;;56.55;31.33;;;;;;;-2.35;87.33;99606.22;1453585;88;21481;-85
2022/01/09 03:27:55;;;;;;;59.25;27.02;;;;;;;-2.31;87.48;99600.39;1453317;87;22404;-84
2022/01/09 03:30:23;;;;;;;53.15;32.30;;;;;;;-2.30;87.33;99596.44;1426088;89;21688;-81
2022/01/09 03:32:53;;;;;;;50.45;28.83;;;;;;;-2.30;87.09;99594.31;1434988;89;22532;-80
2022/01/09 03:35:24;;;;;;;46.88;27.25;;;;;;;-2.34;86.77;99597.52;1442375;90;23038;-79
2022/01/09 03:37:52;;;;;;;39.63;22.95;;;;;;;-2.39;86.64;99590.45;1445028;88;21428;-79
2022/01/09 03:40:22;;;;;;;53.83;29.25;;;;;;;-2.40;86.64;99589.25;1457902;87;21613;-80
2022/01/09 03:42:51;;;;;;;42.30;25.15;;;;;;;-2.42;86.71;99583.31;1433051;88;21442;-82
2022/01/09 03:45:22;;;;;;;42.73;24.45;;;;;;;-2.44;86.57;99588.59;1439506;89;22487;-83
2022/01/09 03:47:50;;;;;;;39.23;21.05;;;;;;;-2.50;86.38;99587.19;1440554;89;21457;-79
2022/01/09 03:50:18;;;;;;;48.02;25.82;;;;;;;-2.54;86.17;99590.02;1423283;90;22511;-81
2022/01/09 03:52:48;;;;;;;43.58;24.40;;;;;;;-2.64;85.73;99590.17;1440421;90;21385;-83
2022/01/09 03:55:19;;;;;;;45.10;25.88;;;;;;;-2.72;85.83;99595.30;1434057;90;22339;-86
2022/01/09 03:57:47;;;;;;;45.52;26.68;;;;;;;-2.78;85.94;99604.70;1424335;89;21451;-83
2022/01/09 04:00:20;;;;;;;43.90;25.10;;;;;;;-2.89;85.48;99605.73;1412096;90;21696;-82
2022/01/09 04:02:49;;;;;;;44.58;24.47;;;;;;;-3.02;84.84;99606.00;1409647;90;21639;-82
2022/01/09 04:05:17;;;;;;;50.33;27.30;;;;;;;-3.13;84.98;99601.88;1409879;90;21473;-83
2022/01/09 04:07:44;;;;;;;42.83;25.92;;;;;;;-3.21;84.97;99605.69;1408973;90;21407;-83
2022/01/09 04:10:11;;;;;;;45.63;23.98;;;;;;;-3.28;84.86;99599.61;1415739;89;21458;-80
2022/01/09 04:12:52;;;;;;;49.58;26.70;;;;;;;-3.35;84.60;99607.33;1420321;90;22632;-80
2022/01/09 04:15:09;;;;;;;;;;;;;;;-3.43;84.84;99607.25;1432579;88;21510;-80
2022/01/09 04:20:09;;;;;;;42.30;24.35;;;;;;;-3.56;85.25;99617.05;1449894;88;21555;-80
2022/01/09 04:22:36;;;;;;;48.50;27.42;;;;;;;-3.58;85.46;99616.27;1461977;88;21500;-80
2022/01/09 04:25:05;;;;;;;45.52;24.47;;;;;;;-3.60;85.50;99607.75;1458954;88;21526;-80
2022/01/09 04:27:34;;;;;;;47.83;24.70;;;;;;;-3.59;85.60;99614.61;1445783;87;21414;-80
2022/01/09 04:30:01;;;;;;;47.05;26.80;;;;;;;-3.60;85.59;99612.45;1457388;88;21474;-80
2022/01/09 04:32:28;;;;;;;41.23;24.43;;;;;;;-3.58;85.92;99617.11;1447530;88;22448;-80
2022/01/09 04:34:56;;;;;;;44.77;26.10;;;;;;;-3.56;86.18;99617.88;1439499;88;21444;-80
2022/01/09 04:37:23;;;;;;;49.23;30.08;;;;;;;-3.56;85.94;99614.45;1447662;88;21533;-80
2022/01/09 04:39:52;;;;;;;59.88;29.72;;;;;;;-3.56;85.91;99617.88;1438641;89;22354;-80
2022/01/09 04:42:23;;;;;;;59.13;31.10;;;;;;;-3.59;85.65;99615.91;1439840;88;21452;-81
2022/01/09 04:44:48;;;;;;;68.90;33.58;;;;;;;-3.61;85.77;99619.84;1432594;89;21673;-81
2022/01/09 04:47:17;;;;;;;63.68;31.45;;;;;;;-3.58;86.21;99620.16;1420327;90;21523;-81
2022/01/09 04:49:46;;;;;;;60.83;30.05;;;;;;;-3.55;86.44;99621.29;1437936;89;21437;-81
2022/01/09 04:52:18;;;;;;;59.50;29.82;;;;;;;-3.52;86.52;99625.02;1387574;93;21434;-82
2022/01/09 04:54:43;;;;;;;53.73;29.48;;;;;;;-3.50;86.53;99625.78;1446392;88;22449;-82
2022/01/09 04:57:10;;;;;;;55.17;28.83;;;;;;;-3.51;86.57;99627.97;1449708;88;21662;-82
2022/01/09 04:59:38;;;;;;;52.03;28.60;;;;;;;-3.55;86.39;99620.00;1408124;90;22564;-81
2022/01/09 05:02:06;;;;;;;44.65;26.02;;;;;;;-3.61;86.95;99622.90;1384011;92;21438;-81
2022/01/09 05:04:33;;;;;;;47.13;26.42;;;;;;;-3.71;87.05;99624.66;1405315;91;21596;-80
2022/01/09 05:07:01;;;;;;;45.92;24.92;;;;;;;-3.75;86.85;99629.59;1411575;90;21420;-80
2022/01/09 05:09:28;;;;;;;47.25;25.32;;;;;;;-3.83;87.38;99627.83;1390344;90;22447;-80
2022/01/09 05:11:57;;;;;;;44.40;26.52;;;;;;;-3.91;87.42;99626.94;1401397;91;21503;-80
2022/01/09 05:14:24;;;;;;;49.03;24.45;;;;;;;-3.98;88.03;99631.19;1389466;91;22363;-80
2022/01/09 05:16:51;;;;;;;43.33;24.02;;;;;;;-4.05;88.08;99628.08;1427169;90;21547;-80
2022/01/09 05:19:28;;;;;;;43.42;23.47;;;;;;;-4.06;88.33;99629.42;1420080;91;21483;-80
2022/01/09 05:21:49;;;;;;;52.30;27.42;;;;;;;-4.12;88.80;99625.39;1440401;87;21658;-82
2022/01/09 05:24:17;;;;;;;47.45;26.27;;;;;;;-4.16;88.46;99625.17;1435083;90;22391;-83
2022/01/09 05:26:44;;;;;;;59.50;30.82;;;;;;;-4.16;88.58;99617.42;1416860;88;21694;-83
2022/01/09 05:29:12;;;;;;;60.45;30.68;;;;;;;-4.16;88.61;99615.67;1443288;88;22523;-83
2022/01/09 05:31:39;;;;;;;57.98;28.92;;;;;;;-4.10;89.49;99617.12;1407205;91;21436;-83
2022/01/09 05:34:07;;;;;;;55.73;29.50;;;;;;;-4.05;89.29;99607.86;1434715;88;21657;-83
2022/01/09 05:36:34;;;;;;;51.75;25.92;;;;;;;-4.00;89.20;99605.86;1439885;89;21405;-83
2022/01/09 05:39:02;;;;;;;51.13;27.70;;;;;;;-3.97;89.32;99600.53;1418112;90;21571;-84
2022/01/09 05:41:30;;;;;;;46.68;25.32;;;;;;;-3.94;88.92;99597.37;1456476;87;21517;-82
2022/01/09 05:43:57;;;;;;;49.90;27.55;;;;;;;-3.94;89.01;99596.50;1444883;87;22418;-82
2022/01/09 05:46:25;;;;;;;45.63;24.87;;;;;;;-3.94;88.51;99592.62;1440072;87;21426;-83
2022/01/09 05:48:52;;;;;;;47.50;25.57;;;;;;;-3.95;88.59;99598.72;1447229;88;21452;-82
2022/01/09 05:51:20;;;;;;;41.73;24.20;;;;;;;-3.97;88.70;99602.69;1451453;88;21384;-83
2022/01/09 05:53:47;;;;;;;44.05;23.05;;;;;;;-3.99;88.27;99606.27;1444230;88;21415;-82
2022/01/09 05:56:14;;;;;;;44.67;24.25;;;;;;;-4.04;88.02;99605.18;1445711;88;21428;-82
2022/01/09 05:58:41;;;;;;;41.55;23.87;;;;;;;-4.04;87.91;99619.40;1444761;87;21473;-82
2022/01/09 06:01:11;;;;;;;40.40;22.55;;;;;;;-4.04;88.10;99614.69;1457181;87;21420;-82
2022/01/09 06:03:39;;;;;;;36.98;20.60;;;;;;;-4.05;88.33;99611.28;1426488;89;23474;-82
2022/01/09 06:06:06;;;;;;;41.58;22.95;;;;;;;-4.11;87.86;99616.29;1397735;91;21466;-81
2022/01/09 06:08:34;;;;;;;43.68;22.73;;;;;;;-4.17;87.73;99611.42;1395026;92;21501;-81
2022/01/09 06:11:07;;;;;;;42.20;24.43;;;;;;;-4.21;88.23;99611.63;1443510;88;21496;-83
2022/01/09 06:13:34;;;;;;;35.55;20.48;;;;;;;-4.20;88.51;99612.86;1449218;87;21547;-81
2022/01/09 06:16:03;;;;;;;45.45;24.80;;;;;;;-4.16;88.49;99614.84;1456208;88;22869;-82
2022/01/09 06:18:31;;;;;;;35.23;20.25;;;;;;;-4.21;87.96;99616.80;1432079;88;22338;-82
2022/01/09 06:20:58;;;;;;;36.58;20.27;;;;;;;-4.24;87.95;99610.03;1443678;88;21489;-81
2022/01/09 06:23:25;;;;;;;32.08;19.12;;;;;;;-4.31;88.03;99615.13;1444750;88;21392;-81
2022/01/09 06:25:53;;;;;;;35.23;20.40;;;;;;;-4.37;87.53;99618.84;1448298;88;21584;-81
2022/01/09 06:28:21;;;;;;;24.52;15.32;;;;;;;-4.43;87.73;99626.02;1442517;89;21461;-80
2022/01/09 06:30:50;;;;;;;30.23;18.05;;;;;;;-4.58;87.42;99627.58;1424850;88;22328;-80
2022/01/09 06:33:17;;;;;;;39.73;23.38;;;;;;;-4.71;87.40;99635.07;1427632;90;21459;-80
2022/01/09 06:35:45;;;;;;;39.88;24.67;;;;;;;-4.81;88.05;99635.09;1398736;91;22559;-80
2022/01/09 06:38:13;;;;;;;41.95;25.80;;;;;;;-4.86;87.84;99640.91;1389565;91;21494;-81
2022/01/09 06:40:41;;;;;;;35.25;21.17;;;;;;;-4.88;88.02;99638.88;1401377;90;21420;-82
2022/01/09 06:43:08;;;;;;;33.90;19.57;;;;;;;-4.88;88.24;99640.17;1390256;91;21452;-81
2022/01/09 06:45:36;;;;;;;35.78;20.72;;;;;;;-4.88;88.83;99640.17;1410463;91;21377;-82
2022/01/09 06:48:03;;;;;;;33.13;19.35;;;;;;;-4.90;88.36;99645.84;1389323;92;23481;-80
2022/01/09 06:50:32;;;;;;;34.45;20.27;;;;;;;-4.89;88.31;99652.67;1412176;89;21502;-80
2022/01/09 06:52:59;;;;;;;41.73;24.05;;;;;;;-4.83;88.47;99658.87;1423265;90;21575;-80
2022/01/09 06:55:27;;;;;;;41.25;22.35;;;;;;;-4.80;88.43;99654.86;1415102;90;22463;-79
2022/01/09 06:57:54;;;;;;;37.85;21.95;;;;;;;-4.75;88.27;99651.59;1436983;89;23513;-80
2022/01/09 07:00:22;;;;;;;41.75;22.82;;;;;;;-4.73;88.29;99654.95;1398868;91;21442;-79
2022/01/09 07:02:49;;;;;;;37.53;20.75;;;;;;;-4.74;88.13;99646.83;1397626;89;21554;-79
2022/01/09 07:05:17;;;;;;;45.52;23.55;;;;;;;-4.73;88.07;99648.95;1397044;90;22873;-79
2022/01/09 07:07:45;;;;;;;47.00;24.57;;;;;;;-4.65;88.40;99642.53;1413869;90;21545;-80
2022/01/09 07:10:13;;;;;;;44.42;23.73;;;;;;;-4.57;88.47;99641.73;1387827;91;21819;-81
2022/01/09 07:12:41;;;;;;;50.88;26.07;;;;;;;-4.47;88.30;99641.30;1396283;92;22036;-79
2022/01/09 07:15:10;;;;;;;42.73;24.12;;;;;;;-4.36;88.29;99647.62;1417700;89;21487;-79
2022/01/09 07:17:37;;;;;;;49.27;26.50;;;;;;;-4.22;88.05;99653.89;1420129;90;21466;-79
2022/01/09 07:20:08;;;;;;;43.40;23.83;;;;;;;-4.17;87.45;99645.45;1401291;92;22853;-80
2022/01/09 07:22:35;;;;;;;34.08;19.57;;;;;;;-4.14;86.93;99658.25;1436898;89;21473;-79
2022/01/09 07:25:05;;;;;;;32.90;19.87;;;;;;;-4.10;86.80;99639.92;1430826;90;21465;-79
2022/01/09 07:27:34;;;;;;;34.03;17.82;;;;;;;-4.11;86.27;99642.13;1415900;91;21574;-79
2022/01/09 07:30:02;;;;;;;47.83;23.00;;;;;;;-4.10;86.02;99647.67;1411145;90;21464;-78
2022/01/09 07:32:29;;;;;;;47.00;24.00;;;;;;;-4.14;85.40;99657.79;1417283;91;21627;-79
2022/01/09 07:34:59;;;;;;;57.10;26.82;;;;;;;-4.18;85.74;99652.37;1387561;92;21975;-79
2022/01/09 07:37:30;;;;;;;58.28;28.73;;;;;;;-4.09;86.20;99655.80;1411972;90;21416;-79
2022/01/09 07:39:55;;;;;;;45.05;24.95;;;;;;;-4.00;86.31;99651.09;1409817;91;21361;-79
2022/01/09 07:42:22;;;;;;;58.92;28.50;;;;;;;-3.91;86.48;99654.09;1403182;91;22853;-79
2022/01/09 07:44:50;;;;;;;49.42;27.20;;;;;;;-3.82;86.48;99655.39;1395736;91;21701;-80
2022/01/09 07:47:17;;;;;;;45.40;24.82;;;;;;;-3.74;86.09;99657.57;1405920;91;21561;-80
2022/01/09 07:49:44;;;;;;;53.23;24.65;;;;;;;-3.69;85.71;99655.59;1409702;91;21518;-79
2022/01/09 07:52:11;;;;;;;50.75;26.30;;;;;;;-3.67;85.28;99657.20;1440687;88;22412;-82
2022/01/09 07:54:38;;;;;;;48.33;25.25;;;;;;;-3.60;85.38;99657.72;1437104;88;21525;-81
2022/01/09 07:57:06;;;;;;;46.08;26.27;;;;;;;-3.56;84.87;99657.14;1438494;88;22368;-83
2022/01/09 07:59:33;;;;;;;41.37;22.10;;;;;;;-3.52;84.67;99647.00;1440336;88;21631;-81
2022/01/09 08:02:01;;;;;;;46.02;23.12;;;;;;;-3.42;84.77;99641.75;1419078;90;22452;-81
2022/01/09 08:04:28;;;;;;;41.02;22.58;;;;;;;-3.23;84.67;99648.09;1392045;90;21702;-82
2022/01/09 08:06:55;;;;;;;42.48;23.47;;;;;;;-3.08;83.85;99646.45;1433023;88;21554;-81
2022/01/09 08:09:22;;;;;;;45.15;25.10;;;;;;;-2.88;84.06;99644.94;1452818;88;21437;-81
2022/01/09 08:11:50;;;;;;;46.83;24.55;;;;;;;-2.73;83.23;99633.78;1455960;88;21527;-81
2022/01/09 08:14:17;;;;;;;48.60;26.52;;;;;;;-2.55;83.32;99631.94;1464161;87;21441;-82
2022/01/09 08:16:44;;;;;;;43.35;25.92;;;;;;;-2.40;82.01;99630.72;1465149;88;22381;-80
2022/01/09 08:19:11;;;;;;;44.90;23.73;;;;;;;-2.27;81.72;99633.02;1455255;88;21495;-82
2022/01/09 08:21:38;;;;;;;48.30;25.05;;;;;;;-2.06;81.74;99620.59;1453689;86;23378;-81
2022/01/09 08:24:06;;;;;;;52.17;27.27;;;;;;;-2.01;80.52;99624.20;1464611;87;21525;-81
2022/01/09 08:26:48;;;;;;;44.85;23.02;;;;;;;-2.04;80.05;99621.35;1458780;87;22550;-81
2022/01/09 08:29:16;;;;;;;43.78;24.40;;;;;;;-1.97;80.27;99622.66;1453331;87;21452;-81
2022/01/09 08:31:43;;;;;;;42.00;24.35;;;;;;;-1.93;79.26;99622.84;1469843;86;21391;-81
2022/01/09 08:34:15;;;;;;;45.03;26.60;;;;;;;-1.80;79.54;99622.98;1447701;88;21472;-81
2022/01/09 08:36:42;;;;;;;40.83;23.47;;;;;;;-1.66;78.97;99624.78;1442664;89;22384;-81
2022/01/09 08:39:10;;;;;;;41.20;25.37;;;;;;;-1.47;79.34;99628.41;1426988;89;21680;-81
2022/01/09 08:41:38;;;;;;;38.80;23.22;;;;;;;-1.25;79.06;99626.68;1428037;88;23555;-80
2022/01/09 08:44:07;;;;;;;36.27;22.03;;;;;;;-1.10;77.62;99625.74;1416297;90;21580;-80
2022/01/09 08:46:36;;;;;;;34.87;20.80;;;;;;;-1.00;77.60;99628.16;1427309;89;21576;-80
2022/01/09 08:49:05;;;;;;;36.07;19.43;;;;;;;-0.87;77.00;99622.21;1425984;90;22596;-80
2022/01/09 08:51:32;;;;;;;34.00;19.17;;;;;;;-0.72;76.21;99614.75;1396431;91;21834;-80
2022/01/09 08:54:00;;;;;;;32.17;18.93;;;;;;;-0.57;75.07;99604.71;1407438;90;21744;-81
2022/01/09 08:56:28;;;;;;;27.63;15.53;;;;;;;-0.47;75.40;99608.38;1396326;93;22742;-80
2022/01/09 08:59:01;;;;;;;33.57;20.10;;;;;;;-0.48;74.78;99602.83;1394136;90;21691;-78
2022/01/09 09:01:28;;;;;;;28.47;15.80;;;;;;;-0.50;74.52;99603.38;1434209;90;21652;-78
2022/01/09 09:03:56;;;;;;;32.20;18.60;;;;;;;-0.43;74.96;99610.78;1438382;88;21655;-79
2022/01/09 09:06:23;;;;;;;46.77;26.47;;;;;;;-0.58;72.24;99605.63;1454792;87;23663;-82
2022/01/09 09:08:51;;;;;;;41.17;22.77;;;;;;;-0.81;72.90;99602.34;1430800;88;21629;-86
2022/01/09 09:11:18;;;;;;;35.67;20.93;;;;;;;-1.06;72.46;99603.88;1432976;88;22542;-84
2022/01/09 09:13:46;;;;;;;39.73;22.73;;;;;;;-1.18;73.51;99602.00;1411590;91;21852;-83
2022/01/09 09:16:16;;;;;;;32.17;20.13;;;;;;;-1.22;73.59;99595.34;1424536;89;22146;-83
2022/01/09 09:18:47;;;;;;;34.33;20.07;;;;;;;-1.21;74.07;99589.20;1436758;89;21916;-84
2022/01/09 09:21:14;;;;;;;;;;;;;;;-1.09;74.67;99587.18;1397308;91;21801;-81
2022/01/09 09:23:41;;;;;;;28.77;17.27;;;;;;;-1.03;74.47;99584.20;1401100;90;20310;-81
2022/01/09 09:26:10;;;;;;;31.73;19.13;;;;;;;-0.98;74.66;99580.00;1430089;89;21822;-81
2022/01/09 09:28:38;;;;;;;25.60;16.63;;;;;;;-0.99;74.35;99585.67;1438094;90;22927;-81
2022/01/09 09:31:05;;;;;;;31.43;19.33;;;;;;;-0.91;75.13;99583.91;1432264;89;21777;-81
2022/01/09 09:33:35;;;;;;;27.37;16.73;;;;;;;-0.83;74.77;99584.27;1435468;90;22210;-81
2022/01/09 09:36:03;;;;;;;31.20;17.43;;;;;;;-0.70;74.82;99586.91;1407839;89;22249;-81
2022/01/09 09:38:31;;;;;;;29.93;17.87;;;;;;;-0.59;74.05;99592.27;1396046;92;21652;-81
2022/01/09 09:40:59;;;;;;;26.37;15.80;;;;;;;-0.50;74.12;99590.37;1419299;91;21789;-82
2022/01/09 09:43:27;;;;;;;28.63;16.90;;;;;;;-0.41;74.00;99579.86;1419168;91;21468;-82
2022/01/09 09:45:54;;;;;;;44.20;23.03;;;;;;;-0.32;73.62;99572.76;1414318;89;21650;-81
2022/01/09 09:48:22;;;;;;;41.53;20.87;;;;;;;-0.16;73.74;99581.72;1428559;89;21812;-81
2022/01/09 09:50:50;;;;;;;35.97;19.37;;;;;;;0.07;73.32;99587.18;1399063;90;21647;-82
2022/01/09 09:53:17;;;;;;;28.07;18.57;;;;;;;0.69;71.36;99583.39;1410571;90;23632;-82
2022/01/09 09:55:46;;;;;;;28.47;18.43;;;;;;;1.61;70.52;99574.77;1404636;89;22025;-82
2022/01/09 09:58:13;;;;;;;32.73;21.27;;;;;;;3.15;66.99;99570.06;1406070;90;22386;-82
2022/01/09 10:00:44;;;;;;;24.53;17.13;;;;;;;3.15;66.99;99570.06;1406762;89;21589;-82
2022/01/09 10:03:11;;;;;;;27.67;18.10;;;;;;;3.74;63.73;99566.20;1399555;91;21904;-82
2022/01/09 10:05:39;;;;;;;27.50;19.13;;;;;;;4.21;63.80;99554.45;1388791;91;22356;-81
2022/01/09 10:08:19;;;;;;;29.50;19.20;;;;;;;4.68;63.40;99555.31;1396006;91;21451;-82
2022/01/09 10:10:43;;;;;;;28.23;20.53;;;;;;;5.17;62.95;99551.89;1433212;90;21484;-82
2022/01/09 10:13:14;;;;;;;25.60;18.33;;;;;;;5.62;62.03;99551.91;1438826;89;21581;-82
2022/01/09 10:15:57;;;;;;;26.40;17.53;;;;;;;5.81;59.26;99548.45;1419923;88;21563;-81
2022/01/09 10:18:45;;;;;;;21.00;14.83;;;;;;;6.01;55.91;99545.36;1384514;92;21667;-80
2022/01/09 10:21:20;;;;;;;26.20;18.30;;;;;;;6.31;58.37;99545.19;1358061;92;21362;-80
2022/01/09 10:24:11;;;;;;;26.27;18.53;;;;;;;6.70;57.11;99546.86;1403667;89;21344;-80
2022/01/09 10:26:42;;;;;;;29.15;18.20;;;;;;;7.06;57.34;99543.05;1419933;90;21338;-80
2022/01/09 10:29:10;;;;;;;;;;;;;;;7.29;55.52;99541.66;1414204;89;21309;-80
2022/01/09 10:31:50;;;;;;;23.57;16.97;;;;;;;7.24;49.03;99542.09;1378323;91;20381;-80
2022/01/09 10:34:17;;;;;;;26.70;18.48;;;;;;;7.18;52.48;99545.32;1480445;85;21391;-79
2022/01/09 10:36:49;;;;;;;21.83;17.47;;;;;;;7.23;53.31;99545.71;1473399;86;22257;-81
2022/01/09 10:39:21;;;;;;;21.40;17.77;;;;;;;7.34;52.60;99551.76;1452831;88;21487;-80
2022/01/09 10:41:58;;;;;;;23.17;16.43;;;;;;;7.22;52.19;99558.55;1390157;90;21608;-80
2022/01/09 10:44:35;;;;;;;22.53;15.63;;;;;;;7.20;52.91;99560.48;1403605;88;22286;-81
2022/01/09 10:47:04;;;;;;;23.23;16.93;;;;;;;7.20;53.57;99553.91;1431306;88;21623;-80
2022/01/09 10:49:47;;;;;;;22.37;17.30;;;;;;;7.16;52.37;99549.92;1418641;88;21532;-81
2022/01/09 10:52:26;;;;;;;24.57;18.23;;;;;;;7.11;52.11;99549.53;1427309;88;21333;-80
2022/01/09 10:55:00;;;;;;;31.10;22.87;;;;;;;6.69;51.83;99547.34;1439278;87;21355;-80
2022/01/09 10:57:30;;;;;;;30.77;20.70;;;;;;;6.37;51.38;99537.70;1428874;87;21339;-80
2022/01/09 11:00:15;;;;;;;34.33;22.87;;;;;;;6.35;52.77;99540.95;1449132;87;21385;-81
2022/01/09 11:02:45;;;;;;;31.60;21.70;;;;;;;6.35;51.52;99533.06;1445057;87;21457;-81
2022/01/09 11:05:12;;;;;;;34.55;22.80;;;;;;;6.47;53.00;99539.80;1414717;86;21327;-81
2022/01/09 11:07:41;;;;;;;35.03;21.17;;;;;;;6.48;51.99;99541.48;1416470;87;21331;-81
2022/01/09 11:10:09;;;;;;;32.47;22.13;;;;;;;6.11;48.87;99534.37;1413775;88;21503;-80
2022/01/09 11:12:46;;;;;;;32.33;21.27;;;;;;;5.69;49.97;99535.94;1408454;88;22378;-81
2022/01/09 11:15:09;;;;;;;33.98;20.57;;;;;;;5.39;51.41;99535.59;1400318;89;21412;-81
2022/01/09 11:17:37;;;;;;;29.97;18.80;;;;;;;5.25;52.00;99535.48;1391383;89;21531;-79
2022/01/09 11:20:08;;;;;;;35.60;21.37;;;;;;;4.97;50.90;99531.34;1374281;87;22352;-79
2022/01/09 11:22:35;;;;;;;30.57;20.23;;;;;;;4.87;52.78;99530.49;1395053;87;21355;-80
2022/01/09 11:25:13;;;;;;;32.13;20.33;;;;;;;5.01;53.46;99535.03;1402502;88;21377;-79
2022/01/09 11:28:12;;;;;;;33.73;21.40;;;;;;;4.98;52.70;99538.75;1398624;88;21360;-80
2022/01/09 11:31:19;;;;;;;28.57;20.33;;;;;;;5.16;53.66;99544.17;1410596;88;22456;-79